createdAt,value
2022-11-18T00:00:22.242Z,80.14
2022-11-18T00:04:23.801Z,79.85
2022-11-18T00:08:23.069Z,79.57
2022-11-18T00:12:37.862Z,79.78
2022-11-18T00:16:37.391Z,80.01
2022-11-18T00:20:38.980Z,80.33
2022-11-18T00:24:38.440Z,80.36
2022-11-18T00:28:37.834Z,80.94
2022-11-18T00:32:37.324Z,81.10
2022-11-18T00:36:38.720Z,80.85
2022-11-18T00:40:38.232Z,80.53
2022-11-18T00:44:37.742Z,80.52
2022-11-18T00:48:37.741Z,80.26
2022-11-18T00:52:39.441Z,80.39
2022-11-18T00:56:38.909Z,80.45
2022-11-18T01:00:38.090Z,80.45
2022-11-18T01:04:37.570Z,80.21
2022-11-18T01:08:38.908Z,80.54
2022-11-18T01:12:54.751Z,80.81
2022-11-18T01:16:59.056Z,80.68
2022-11-18T01:21:02.595Z,80.83
2022-11-18T01:25:03.775Z,81.00
2022-11-18T01:29:03.333Z,81.28
2022-11-18T01:33:03.614Z,80.78
2022-11-18T01:37:02.779Z,80.88
2022-11-18T01:41:04.099Z,80.74
2022-11-18T01:45:11.662Z,80.24
2022-11-18T01:49:16.516Z,79.98
2022-11-18T01:53:19.106Z,79.99
2022-11-18T01:57:24.914Z,80.11
2022-11-18T02:01:24.612Z,80.42
2022-11-18T02:05:25.745Z,79.99
2022-11-18T02:09:25.236Z,79.84
2022-11-18T02:13:27.141Z,79.85
2022-11-18T02:17:39.125Z,80.34
2022-11-18T02:21:48.212Z,79.90
2022-11-18T02:26:07.318Z,79.03
2022-11-18T02:30:11.882Z,78.96
2022-11-18T02:34:20.330Z,78.31
2022-11-18T02:38:27.732Z,76.57
2022-11-18T02:42:31.263Z,76.76
2022-11-18T02:46:35.957Z,77.27
2022-11-18T02:50:38.781Z,77.69
2022-11-18T02:54:41.881Z,78.97
2022-11-18T02:58:41.778Z,80.04
2022-11-18T03:02:47.989Z,79.37
2022-11-18T03:06:52.608Z,79.82
2022-11-18T03:11:08.840Z,81.46
2022-11-18T03:15:18.582Z,82.24
2022-11-18T03:19:24.168Z,83.05
2022-11-18T03:23:29.832Z,84.47
2022-11-18T03:27:33.266Z,84.01
2022-11-18T03:31:38.318Z,85.35
2022-11-18T03:35:44.699Z,86.23
2022-11-18T03:39:49.890Z,86.81
2022-11-18T03:43:53.032Z,84.34
2022-11-18T03:47:57.634Z,82.06
2022-11-18T03:52:04.995Z,80.37
2022-11-18T03:56:16.923Z,80.38
2022-11-18T04:00:19.896Z,80.40
2022-11-18T04:04:19.593Z,80.27
2022-11-18T04:08:29.940Z,80.15
2022-11-18T04:12:33.605Z,80.62
2022-11-18T04:16:33.151Z,84.02
2022-11-18T04:20:33.462Z,85.70
2022-11-18T04:24:35.109Z,85.66
2022-11-18T04:28:34.681Z,85.58
2022-11-18T04:32:34.609Z,84.57
2022-11-18T04:36:34.319Z,85.29
2022-11-18T04:40:36.009Z,85.89
2022-11-18T04:44:36.154Z,85.68
2022-11-18T04:48:35.661Z,84.92
2022-11-18T04:52:34.873Z,85.36
2022-11-18T04:56:36.596Z,84.54
2022-11-18T05:00:36.139Z,83.44
2022-11-18T05:04:36.193Z,83.42
2022-11-18T05:08:35.754Z,82.55
2022-11-18T05:12:52.219Z,84.14
2022-11-18T05:16:51.663Z,83.78
2022-11-18T05:20:51.165Z,82.57
2022-11-18T05:24:50.979Z,82.23
2022-11-18T05:28:53.151Z,81.77
2022-11-18T05:32:52.621Z,81.75
2022-11-18T05:36:51.878Z,82.46
2022-11-18T05:40:51.537Z,82.90
2022-11-18T05:44:58.075Z,83.83
2022-11-18T05:48:58.452Z,88.26
2022-11-18T05:52:57.777Z,90.13
2022-11-18T05:56:57.446Z,91.64
2022-11-18T06:01:00.237Z,91.56
2022-11-18T06:05:04.369Z,91.08
2022-11-18T06:09:06.698Z,87.93
2022-11-18T06:13:11.164Z,84.73
2022-11-18T06:17:18.124Z,82.25
2022-11-18T06:21:20.942Z,81.75
2022-11-18T06:25:20.823Z,81.32
2022-11-18T06:29:27.442Z,81.39
2022-11-18T06:33:29.433Z,81.78
2022-11-18T06:37:28.952Z,81.99
2022-11-18T06:41:28.564Z,81.39
2022-11-18T06:45:28.081Z,80.07
2022-11-18T06:49:30.202Z,79.08
2022-11-18T06:53:29.674Z,76.68
2022-11-18T06:57:28.919Z,77.14
2022-11-18T07:01:30.103Z,77.75
2022-11-18T07:05:31.801Z,76.61
2022-11-18T07:09:31.699Z,75.63
2022-11-18T07:13:31.184Z,76.96
2022-11-18T07:17:32.075Z,77.98
2022-11-18T07:21:35.965Z,77.82
2022-11-18T07:25:35.536Z,78.30
2022-11-18T07:29:35.064Z,78.03
2022-11-18T07:33:35.466Z,78.80
2022-11-18T07:37:37.408Z,77.00
2022-11-18T07:41:37.608Z,76.42
2022-11-18T07:45:37.150Z,76.38
2022-11-18T07:49:36.664Z,77.35
2022-11-18T07:53:38.743Z,76.82
2022-11-18T07:57:38.323Z,76.21
2022-11-18T08:01:38.256Z,75.97
2022-11-18T08:05:37.821Z,76.18
2022-11-18T08:09:39.531Z,76.33
2022-11-18T08:13:39.504Z,76.46
2022-11-18T08:17:39.091Z,74.71
2022-11-18T08:21:38.646Z,73.20
2022-11-18T08:25:40.771Z,71.41
2022-11-18T08:29:40.464Z,71.61
2022-11-18T08:33:40.175Z,70.23
2022-11-18T08:37:40.004Z,68.82
2022-11-18T08:41:43.787Z,69.67
2022-11-18T08:45:43.532Z,70.10
2022-11-18T08:49:44.013Z,69.25
2022-11-18T08:53:43.266Z,71.31
2022-11-18T08:57:45.172Z,71.46
2022-11-18T09:01:44.871Z,70.61
2022-11-18T09:05:44.625Z,72.63
2022-11-18T09:09:44.461Z,74.89
2022-11-18T09:14:38.925Z,73.47
2022-11-18T09:18:06.424Z,71.79
2022-11-18T09:22:06.230Z,72.21
2022-11-18T09:26:08.694Z,71.40
2022-11-18T09:30:13.959Z,71.20
2022-11-18T09:34:13.865Z,70.09
2022-11-18T09:38:13.699Z,70.92
2022-11-18T09:42:24.304Z,70.75
2022-11-18T09:46:33.813Z,71.27
2022-11-18T09:50:49.183Z,70.30
2022-11-18T09:54:49.779Z,70.65
2022-11-18T09:58:49.912Z,70.91
2022-11-18T10:02:59.676Z,70.34
2022-11-18T10:07:00.226Z,70.26
2022-11-18T10:11:07.569Z,70.34
2022-11-18T10:15:21.544Z,71.92
2022-11-18T10:19:34.600Z,72.76
2022-11-18T10:23:41.918Z,71.76
2022-11-18T10:27:43.363Z,72.69
2022-11-18T10:31:59.691Z,73.90
2022-11-18T10:36:27.767Z,73.30
2022-11-18T10:40:30.269Z,71.26
2022-11-18T10:44:33.717Z,71.23
2022-11-18T10:48:33.497Z,71.32
2022-11-18T10:52:52.858Z,71.26
2022-11-18T10:56:58.459Z,71.75
2022-11-18T11:01:08.446Z,72.35
2022-11-18T11:05:21.204Z,72.13
2022-11-18T11:09:30.696Z,72.46
2022-11-18T11:13:33.848Z,72.53
2022-11-18T11:17:39.624Z,72.25
2022-11-18T11:21:42.766Z,72.17
2022-11-18T11:30:32.086Z,72.09
2022-11-18T11:40:03.253Z,71.79
2022-11-18T11:44:42.532Z,72.46
2022-11-18T11:49:15.768Z,71.95
2022-11-18T11:53:29.944Z,71.24
2022-11-18T11:57:41.267Z,71.25
2022-11-18T12:01:54.692Z,70.66
2022-11-18T12:05:54.349Z,69.45
2022-11-18T12:10:25.568Z,70.51
2022-11-18T12:14:38.563Z,70.16
2022-11-18T12:18:45.609Z,71.38
2022-11-18T12:23:26.403Z,71.62
2022-11-18T12:28:01.466Z,70.89
2022-11-18T12:32:02.194Z,71.08
2022-11-18T12:36:04.052Z,71.37
2022-11-18T12:40:03.927Z,71.63
2022-11-18T12:44:12.664Z,72.16
2022-11-18T12:48:34.441Z,72.24
2022-11-18T12:52:58.031Z,71.75
2022-11-18T12:57:01.565Z,70.33
2022-11-18T13:01:08.158Z,70.27
2022-11-18T13:05:10.470Z,70.56
2022-11-18T13:09:19.869Z,69.85
2022-11-18T13:13:29.339Z,69.65
2022-11-18T13:17:47.761Z,69.64
2022-11-18T13:22:12.705Z,69.58
2022-11-18T13:26:21.485Z,69.93
2022-11-18T13:30:23.805Z,69.35
2022-11-18T13:34:25.691Z,70.32
2022-11-18T13:38:28.617Z,69.35
2022-11-18T13:42:32.058Z,69.83
2022-11-18T13:46:31.810Z,69.78
2022-11-18T13:50:35.498Z,70.38
2022-11-18T13:54:35.339Z,70.44
2022-11-18T14:03:27.073Z,69.69
2022-11-18T14:07:29.412Z,70.39
2022-11-18T14:11:40.795Z,70.56
2022-11-18T14:15:44.248Z,70.85
2022-11-18T14:19:44.432Z,71.27
2022-11-18T14:23:46.290Z,71.65
2022-11-18T14:27:48.065Z,71.73
2022-11-18T14:32:15.085Z,71.79
2022-11-18T14:36:17.628Z,72.49
2022-11-18T14:40:19.337Z,72.83
2022-11-18T14:44:19.665Z,72.92
2022-11-18T14:48:27.164Z,73.17
2022-11-18T14:52:30.694Z,73.92
2022-11-18T14:56:32.573Z,74.90
2022-11-18T15:00:32.315Z,75.69
2022-11-18T15:04:34.189Z,75.94
2022-11-18T15:08:33.781Z,76.63
2022-11-18T15:12:33.976Z,76.35
2022-11-18T15:16:34.935Z,76.44
2022-11-18T15:20:36.833Z,77.27
2022-11-18T15:24:39.365Z,77.79
2022-11-18T15:28:42.001Z,78.21
2022-11-18T15:32:41.355Z,78.94
2022-11-18T15:36:43.277Z,79.89
2022-11-18T15:40:42.923Z,80.92
2022-11-18T15:44:42.463Z,81.23
2022-11-18T15:48:42.359Z,82.18
2022-11-18T15:56:43.928Z,84.12
2022-11-18T16:00:45.209Z,84.63
2022-11-18T16:04:45.109Z,85.19
2022-11-18T16:08:46.822Z,85.93
2022-11-18T16:12:49.186Z,86.69
2022-11-18T16:16:50.877Z,86.87
2022-11-18T16:20:51.357Z,87.51
2022-11-18T16:24:53.568Z,87.60
2022-11-18T16:29:21.110Z,88.38
2022-11-18T16:33:50.564Z,88.64
2022-11-18T16:37:54.978Z,88.26
2022-11-18T16:42:07.988Z,89.03
2022-11-18T16:46:11.918Z,89.20
2022-11-18T16:50:13.301Z,88.95
2022-11-18T16:54:19.257Z,89.29
2022-11-18T16:58:21.156Z,89.11
2022-11-18T17:02:26.587Z,89.21
2022-11-18T17:06:30.447Z,89.07
2022-11-18T17:10:41.175Z,89.04
2022-11-18T18:00:33.426Z,84.84
2022-11-18T18:51:19.135Z,77.14
2022-11-18T21:30:58.663Z,93.80
2022-11-18T23:02:06.049Z,89.99
2022-11-18T23:23:43.792Z,88.02
2022-11-18T23:50:12.710Z,88.04
